EST,Max TemperatureF,Mean TemperatureF,Min TemperatureF,Max Dew PointF,MeanDew PointF,Min DewpointF,Max Humidity, Mean Humidity, Min Humidity, Max Sea Level PressureIn, Mean Sea Level PressureIn, Min Sea Level PressureIn, Max VisibilityMiles, Mean VisibilityMiles, Min VisibilityMiles, Max Wind SpeedMPH, Mean Wind SpeedMPH, Max Gust SpeedMPH,PrecipitationIn, CloudCover, Events, WindDirDegrees
2013-11-1,55,50,46,45,43,41,93,76,58,29.96,29.70,29.65,10,10,10,12,12,23,0.00,7,,228
2013-11-2,51,45,42,41,39,36,93,76,54,29.92,29.89,29.84,10,8,7,17,12,29,0.00,6,,289
2013-11-3,51,46,42,39,35,32,87,61,47,30.34,30.31,30.29,10,10,10,12,6,,0.00,5,,93
2013-11-4,53,48,44,37,35,32,61,55,51,30.37,30.32,30.28,10,10,10,17,14,29,0.00,0,,140
2013-11-5,55,52,50,45,42,41,82,64,58,30.39,30.35,30.28,10,10,10,14,10,,0.00,3,,171
2013-11-6,57,55,53,55,50,43,94,83,63,30.04,30.00,29.93,10,8,3,17,12,23,0.00,8,Rain,192
2013-11-7,46,40,35,30,26,21,75,54,37,30.29,30.25,30.20,10,10,10,15,9,20,0.00,0,,277
2013-11-8,64,48,32,30,29,27,87,57,26,30.36,30.32,30.27,10,10,10,12,8,,0.00,0,,269
2013-11-9,59,50,42,37,34,28,57,47,42,30.08,30.03,29.99,10,10,10,17,13,29,0.00,0,,204
2013-11-10,44,42,39,30,29,28,70,58,53,30.34,30.32,30.30,10,10,10,17,16,23,0.00,4,,291
2013-11-11,50,46,41,36,32,30,65,56,50,30.22,30.15,30.09,10,10,10,12,12,23,0.00,7,,214
2013-11-12,33,30,26,21,20,19,74,65,60,30.60,30.46,29.59,10,10,10,12,12,17,0.00,4,,326
2013-11-13,37,30,24,18,15,10,74,51,35,30.61,30.55,30.46,10,10,10,13,8,,0.00,0,,221
2013-11-14,53,42,32,19,18,16,60,37,22,30.27,30.20,30.12,10,10,10,12,12,23,0.00,0,,191
2013-11-15,48,44,41,27,23,21,45,42,39,30.12,30.10,30.06,10,10,10,12,12,17,0.00,2,,186
2013-11-16,55,52,48,48,47,46,94,88,77,30.08,30.02,29.93,10,6,2,17,12,29,0.00,8,,157
2013-11-17,64,62,60,59,58,57,88,84,82,29.69,29.57,29.44,10,10,10,29,23,46,0.00,8,,171
2013-11-18,48,44,41,32,31,28,70,57,50,30.05,30.00,29.95,10,10,10,23,19,40,0.00,2,,269
2013-11-19,39,34,30,27,26,25,80,66,61,30.36,30.34,30.31,10,10,10,12,7,17,0.00,2,,13
2013-11-20,46,39,32,30,28,27,80,64,53,30.32,30.26,30.20,10,10,10,13,9,,0.00,0,,126
2013-11-21,51,46,42,46,41,37,82,80,76,30.28,30.24,30.19,10,9,5,12,11,17,0.00,8,Rain,156
2013-11-22,48,44,41,48,42,36,100,93,81,30.31,30.26,30.21,10,6,3,12,11,23,0.00,8,,310
2013-11-23,30,29,28,21,19,16,74,66,59,30.46,30.42,30.40,10,10,10,17,13,34,0.00,4,,298
2013-11-24,26,22,19,12,10,7,68,56,43,30.69,30.63,30.56,10,10,10,12,10,17,0.00,3,,297
2013-11-25,32,28,24,12,12,12,59,50,44,30.34,30.27,30.21,10,10,10,12,12,23,0.00,7,,198
2013-11-26,33,32,32,25,24,19,75,73,56,30.10,30.04,29.97,10,10,10,6,3,,0.00,7,,205
2013-11-27,26,22,21,18,17,16,86,78,64,30.12,30.11,30.09,10,8,4,16,12,22,0.00,8,Snow,284
2013-11-28,,,,,,,,,,,,,,,,,,,,,,
2013-11-29,37,28,19,21,19,18,93,63,48,30.63,30.60,30.57,10,10,7,9,3,,0.00,0,,115
2013-11-30,48,39,30,27,25,21,69,51,43,30.40,30.30,30.19,10,10,10,12,10,17,0.00,0,,175